createdAt,value
2023-03-06T00:01:20.445Z,60.18
2023-03-06T00:06:23.133Z,55.84
2023-03-06T00:11:25.745Z,55.38
2023-03-06T00:16:29.038Z,55.30
2023-03-06T00:21:31.692Z,56.91
2023-03-06T00:26:35.962Z,59.84
2023-03-06T00:31:38.600Z,60.37
2023-03-06T00:36:41.935Z,67.76
2023-03-06T00:41:46.917Z,72.29
2023-03-06T00:46:49.955Z,64.97
2023-03-06T00:51:52.796Z,61.73
2023-03-06T00:56:55.406Z,60.47
2023-03-06T01:01:58.321Z,53.92
2023-03-06T01:07:01.086Z,53.38
2023-03-06T01:12:03.952Z,54.32
2023-03-06T01:17:07.626Z,55.56
2023-03-06T01:22:10.174Z,59.39
2023-03-06T01:27:12.757Z,60.83
2023-03-06T01:32:15.365Z,61.44
2023-03-06T01:37:18.043Z,70.25
2023-03-06T01:42:20.827Z,70.92
2023-03-06T01:47:23.418Z,64.63
2023-03-06T01:52:30.671Z,61.73
2023-03-06T01:57:38.151Z,55.86
2023-03-06T02:02:43.822Z,54.48
2023-03-06T02:07:47.417Z,55.83
2023-03-06T02:12:51.609Z,58.32
2023-03-06T02:17:54.620Z,64.13
2023-03-06T02:23:24.709Z,72.78
2023-03-06T02:28:27.583Z,66.89
2023-03-06T02:33:30.191Z,60.48
2023-03-06T02:38:50.016Z,52.36
2023-03-06T02:43:53.369Z,53.71
2023-03-06T02:48:55.912Z,54.13
2023-03-06T02:53:58.651Z,55.70
2023-03-06T02:59:01.236Z,59.55
2023-03-06T03:04:03.889Z,68.65
2023-03-06T03:09:07.404Z,70.13
2023-03-06T03:14:09.968Z,65.00
2023-03-06T03:19:12.795Z,61.89
2023-03-06T03:24:16.663Z,59.37
2023-03-06T03:29:19.992Z,53.79
2023-03-06T03:34:22.805Z,55.36
2023-03-06T03:39:25.423Z,57.12
2023-03-06T03:44:27.967Z,59.38
2023-03-06T03:49:30.712Z,62.15
2023-03-06T03:54:33.854Z,70.41
2023-03-06T03:59:36.468Z,68.42
2023-03-06T04:04:39.078Z,64.22
2023-03-06T04:09:41.838Z,61.23
2023-03-06T04:14:44.471Z,55.61
2023-03-06T04:19:47.033Z,57.97
2023-03-06T04:24:50.141Z,61.97
2023-03-06T04:29:56.138Z,68.52
2023-03-06T04:34:58.709Z,64.93
2023-03-06T04:40:01.274Z,62.04
2023-03-06T04:45:04.670Z,61.21
2023-03-06T04:50:08.402Z,56.26
2023-03-06T04:55:13.486Z,57.34
2023-03-06T05:00:19.515Z,61.06
2023-03-06T05:05:22.191Z,65.05
2023-03-06T05:10:24.911Z,67.99
2023-03-06T05:15:28.618Z,62.82
2023-03-06T05:20:31.180Z,58.00
2023-03-06T05:25:33.791Z,54.91
2023-03-06T05:30:36.767Z,57.80
2023-03-06T05:35:39.472Z,63.96
2023-03-06T05:40:44.141Z,67.62
2023-03-06T05:45:46.956Z,61.72
2023-03-06T05:50:55.994Z,59.18
2023-03-06T05:56:07.124Z,54.52
2023-03-06T06:01:13.259Z,55.90
2023-03-06T06:06:15.922Z,58.32
2023-03-06T06:11:20.860Z,59.90
2023-03-06T06:16:23.444Z,68.74
2023-03-06T06:21:26.047Z,68.26
2023-03-06T06:26:28.587Z,61.16
2023-03-06T06:31:31.470Z,55.66
2023-03-06T06:36:34.551Z,55.80
2023-03-06T06:42:09.618Z,58.52
2023-03-06T06:52:26.433Z,68.59
2023-03-06T06:57:29.196Z,62.42
2023-03-06T07:02:32.333Z,56.56
2023-03-06T07:07:37.473Z,57.91
2023-03-06T07:12:40.299Z,65.05
2023-03-06T07:17:44.031Z,60.75
2023-03-06T07:22:51.377Z,53.81
2023-03-06T07:27:54.843Z,57.31
2023-03-06T07:33:02.875Z,65.45
2023-03-06T07:38:05.410Z,59.25
2023-03-06T07:43:18.741Z,52.15
2023-03-06T07:48:21.915Z,53.67
2023-03-06T07:53:25.812Z,58.66
2023-03-06T07:58:28.477Z,63.99
2023-03-06T08:03:31.211Z,53.39
2023-03-06T08:08:35.690Z,56.18
2023-03-06T08:13:39.522Z,62.33
2023-03-06T08:18:43.741Z,53.31
2023-03-06T08:23:48.454Z,60.11
2023-03-06T08:28:52.982Z,57.30
2023-03-06T08:33:58.025Z,56.72
2023-03-06T08:39:01.552Z,56.58
2023-03-06T08:44:04.919Z,57.87
2023-03-06T08:49:07.585Z,61.80
2023-03-06T08:54:12.803Z,63.55
2023-03-06T08:59:15.407Z,51.67
2023-03-06T09:04:17.970Z,50.24
2023-03-06T09:09:20.552Z,53.78
2023-03-06T09:14:23.213Z,59.72
2023-03-06T09:19:25.895Z,57.81
2023-03-06T09:24:28.603Z,60.38
2023-03-06T09:29:31.167Z,54.59
2023-03-06T09:38:34.201Z,56.07
2023-03-06T09:43:39.704Z,55.21
2023-03-06T09:48:52.791Z,56.18
2023-03-06T09:54:15.663Z,54.42
2023-03-06T09:59:24.969Z,51.70
2023-03-06T10:04:40.303Z,55.53
2023-03-06T10:10:03.926Z,55.94
2023-03-06T10:15:28.815Z,56.25
2023-03-06T10:20:54.161Z,55.54
2023-03-06T10:26:13.444Z,51.99
2023-03-06T10:31:23.724Z,53.22
2023-03-06T10:36:28.651Z,52.28
2023-03-06T10:41:35.153Z,54.83
2023-03-06T10:46:44.101Z,52.89
2023-03-06T10:52:18.592Z,54.31
2023-03-06T10:57:29.324Z,52.34
2023-03-06T11:02:38.372Z,48.37
2023-03-06T11:07:55.442Z,50.43
2023-03-06T11:13:07.602Z,49.96
2023-03-06T11:18:10.133Z,51.17
2023-03-06T11:23:32.001Z,52.43
2023-03-06T11:28:40.735Z,52.37
2023-03-06T11:34:19.699Z,51.74
2023-03-06T11:39:36.915Z,50.96
2023-03-06T11:44:53.915Z,50.50
2023-03-06T11:50:35.688Z,50.27
2023-03-06T11:55:46.950Z,50.16
2023-03-06T12:01:08.562Z,49.87
2023-03-06T12:06:38.051Z,48.86
2023-03-06T12:11:50.591Z,49.48
2023-03-06T12:17:06.739Z,47.69
2023-03-06T12:22:57.847Z,46.74
2023-03-06T12:28:37.032Z,49.24
2023-03-06T12:33:53.226Z,49.19
2023-03-06T12:39:07.114Z,48.87
2023-03-06T12:44:26.534Z,48.13
2023-03-06T12:49:33.307Z,48.17
2023-03-06T12:54:39.719Z,48.30
2023-03-06T12:59:47.188Z,48.23
2023-03-06T13:05:09.454Z,46.47
2023-03-06T13:10:27.990Z,47.18
2023-03-06T13:15:41.506Z,45.70
2023-03-06T13:20:46.083Z,47.03
2023-03-06T13:25:50.118Z,46.99
2023-03-06T13:30:54.172Z,47.28
2023-03-06T13:35:58.798Z,46.65
2023-03-06T13:41:20.579Z,46.87
2023-03-06T13:46:35.464Z,45.73
2023-03-06T13:51:54.302Z,45.91
2023-03-06T13:57:15.762Z,45.24
2023-03-06T14:02:37.176Z,46.39
2023-03-06T14:07:43.995Z,46.30
2023-03-06T14:12:49.511Z,46.09
2023-03-06T14:18:24.020Z,45.52
2023-03-06T14:23:42.195Z,46.08
2023-03-06T14:28:55.002Z,46.10
2023-03-06T14:34:06.700Z,46.06
2023-03-06T14:39:37.181Z,46.47
2023-03-06T14:44:39.797Z,47.52
2023-03-06T14:49:42.426Z,47.51
2023-03-06T14:54:46.028Z,47.31
2023-03-06T14:59:55.698Z,47.20
2023-03-06T15:05:25.463Z,47.22
2023-03-06T15:10:31.137Z,47.69
2023-03-06T15:15:33.927Z,47.51
2023-03-06T15:20:42.612Z,47.81
2023-03-06T15:25:53.092Z,48.19
2023-03-06T15:31:24.378Z,48.18
2023-03-06T15:36:33.460Z,48.34
2023-03-06T15:41:38.420Z,48.48
2023-03-06T15:46:42.196Z,48.43
2023-03-06T15:51:46.294Z,48.71
2023-03-06T15:56:50.420Z,48.94
2023-03-06T16:01:55.020Z,49.11
2023-03-06T16:06:57.639Z,49.35
2023-03-06T16:12:00.294Z,49.54
2023-03-06T16:17:03.026Z,49.65
2023-03-06T16:22:07.426Z,49.78
2023-03-06T16:27:18.934Z,49.98
2023-03-06T16:32:21.624Z,50.19
2023-03-06T16:37:25.546Z,50.86
2023-03-06T16:42:28.153Z,51.30
2023-03-06T16:47:30.894Z,51.48
2023-03-06T16:52:33.521Z,52.73
2023-03-06T16:57:36.208Z,53.52
2023-03-06T17:02:40.112Z,53.74
2023-03-06T17:07:42.961Z,54.71
2023-03-06T17:12:47.977Z,55.78
2023-03-06T17:17:52.311Z,55.92
2023-03-06T17:22:55.163Z,56.24
2023-03-06T17:28:00.589Z,56.26
2023-03-06T17:33:03.487Z,56.86
2023-03-06T17:38:06.211Z,57.29
2023-03-06T17:43:09.226Z,58.14
2023-03-06T17:48:12.697Z,58.33
2023-03-06T17:53:15.389Z,59.30
2023-03-06T17:58:18.148Z,59.75
2023-03-06T18:03:21.077Z,60.33
2023-03-06T18:08:23.829Z,60.67
2023-03-06T18:13:30.731Z,60.67
2023-03-06T18:18:34.019Z,70.05
2023-03-06T18:23:38.292Z,74.64
2023-03-06T18:28:44.458Z,65.45
2023-03-06T18:33:52.131Z,53.92
2023-03-06T18:38:55.777Z,52.77
2023-03-06T18:44:01.159Z,54.17
2023-03-06T18:49:05.524Z,55.70
2023-03-06T18:54:09.720Z,56.53
2023-03-06T18:59:18.220Z,55.87
2023-03-06T19:04:21.543Z,57.80
2023-03-06T19:09:24.845Z,57.65
2023-03-06T19:14:28.650Z,58.34
2023-03-06T19:19:31.253Z,59.34
2023-03-06T19:24:34.206Z,59.73
2023-03-06T19:29:38.507Z,60.08
2023-03-06T19:34:41.176Z,60.29
2023-03-06T19:39:44.484Z,70.09
2023-03-06T19:44:47.075Z,72.62
2023-03-06T19:49:49.683Z,61.87
2023-03-06T19:54:52.989Z,53.23
2023-03-06T19:59:58.408Z,53.51
2023-03-06T20:05:01.216Z,55.03
2023-03-06T20:10:04.621Z,56.49
2023-03-06T20:15:08.373Z,59.02
2023-03-06T20:20:11.623Z,59.00
2023-03-06T20:25:14.238Z,59.16
2023-03-06T20:30:17.241Z,59.55
2023-03-06T20:35:19.834Z,60.29
2023-03-06T20:40:22.526Z,60.86
2023-03-06T20:45:25.198Z,70.80
2023-03-06T20:50:27.883Z,72.84
2023-03-06T20:55:30.443Z,63.26
2023-03-06T21:00:33.323Z,54.97
2023-03-06T21:05:36.055Z,55.21
2023-03-06T21:10:38.767Z,56.18
2023-03-06T21:15:43.018Z,56.81
2023-03-06T21:20:45.615Z,58.03
2023-03-06T21:25:52.837Z,59.12
2023-03-06T21:30:55.632Z,59.48
2023-03-06T21:35:58.461Z,60.28
2023-03-06T21:41:24.962Z,69.93
2023-03-06T21:46:28.493Z,72.79
2023-03-06T21:51:31.091Z,63.94
2023-03-06T21:56:33.808Z,55.74
2023-03-06T22:01:36.826Z,55.05
2023-03-06T22:06:42.750Z,57.63
2023-03-06T22:11:45.409Z,57.96
2023-03-06T22:16:47.985Z,58.70
2023-03-06T22:21:50.600Z,58.89
2023-03-06T22:26:53.127Z,59.93
2023-03-06T22:31:55.812Z,60.66
2023-03-06T22:36:58.532Z,70.42
2023-03-06T22:42:01.177Z,73.64
2023-03-06T22:47:03.804Z,64.94
2023-03-06T22:52:06.823Z,55.61
2023-03-06T22:57:09.369Z,53.60
2023-03-06T23:02:11.924Z,55.01
2023-03-06T23:07:14.552Z,56.47
2023-03-06T23:12:17.117Z,57.53
2023-03-06T23:17:19.901Z,58.39
2023-03-06T23:22:22.621Z,68.45
2023-03-06T23:27:25.236Z,71.29
2023-03-06T23:32:28.194Z,65.99
2023-03-06T23:37:30.908Z,60.95
2023-03-06T23:42:33.556Z,53.96
2023-03-06T23:47:36.091Z,54.67
2023-03-06T23:52:38.851Z,56.28
2023-03-06T23:57:41.419Z,57.67
